createdAt,value
2022-07-28T00:00:47.915Z,16.67
2022-07-28T00:03:14.406Z,16.66
2022-07-28T00:05:41.573Z,16.65
2022-07-28T00:08:10.132Z,16.68
2022-07-28T00:10:36.652Z,16.63
2022-07-28T00:13:03.927Z,16.62
2022-07-28T00:15:33.595Z,16.64
2022-07-28T00:18:00.656Z,16.57
2022-07-28T00:20:28.013Z,16.56
2022-07-28T00:22:54.504Z,16.56
2022-07-28T00:25:21.085Z,16.55
2022-07-28T00:27:48.344Z,16.52
2022-07-28T00:30:14.853Z,16.52
2022-07-28T00:32:41.583Z,16.49
2022-07-28T00:35:08.760Z,16.47
2022-07-28T00:37:35.729Z,16.41
2022-07-28T00:40:07.408Z,16.43
2022-07-28T00:42:33.951Z,16.41
2022-07-28T00:45:00.504Z,16.40
2022-07-28T00:47:27.004Z,16.40
2022-07-28T00:50:02.245Z,16.36
2022-07-28T00:52:28.919Z,16.34
2022-07-28T00:54:55.436Z,16.34
2022-07-28T00:57:21.998Z,16.35
2022-07-28T00:59:48.499Z,16.32
2022-07-28T01:02:15.638Z,16.32
2022-07-28T01:04:42.413Z,16.31
2022-07-28T01:07:27.041Z,16.29
2022-07-28T01:10:08.484Z,16.28
2022-07-28T01:12:50.925Z,16.24
2022-07-28T01:15:30.597Z,16.22
2022-07-28T01:18:21.200Z,16.24
2022-07-28T01:20:52.505Z,16.20
2022-07-28T01:23:40.173Z,16.20
2022-07-28T01:26:13.653Z,16.15
2022-07-28T01:28:56.732Z,16.14
2022-07-28T01:31:27.354Z,16.11
2022-07-28T01:34:00.392Z,16.08
2022-07-28T01:36:33.965Z,16.04
2022-07-28T01:39:01.704Z,16.00
2022-07-28T01:41:30.357Z,15.96
2022-07-28T01:44:01.041Z,15.95
2022-07-28T01:46:28.329Z,15.91
2022-07-28T01:48:57.471Z,15.93
2022-07-28T01:51:26.958Z,15.93
2022-07-28T01:53:56.006Z,15.90
2022-07-28T01:56:24.818Z,15.90
2022-07-28T01:58:52.668Z,15.90
2022-07-28T02:01:21.636Z,15.87
2022-07-28T02:03:50.140Z,15.82
2022-07-28T02:06:19.746Z,15.82
2022-07-28T02:08:47.631Z,15.76
2022-07-28T02:11:32.628Z,15.78
2022-07-28T02:13:59.938Z,15.73
2022-07-28T02:16:29.223Z,15.65
2022-07-28T02:18:59.346Z,15.64
2022-07-28T02:21:26.667Z,15.64
2022-07-28T02:23:54.765Z,15.61
2022-07-28T02:26:27.992Z,15.58
2022-07-28T02:28:58.081Z,15.49
2022-07-28T02:31:32.022Z,15.48
2022-07-28T02:34:03.262Z,15.49
2022-07-28T02:36:40.785Z,15.53
2022-07-28T02:39:23.797Z,15.51
2022-07-28T02:41:57.053Z,15.49
2022-07-28T02:44:28.728Z,15.39
2022-07-28T02:46:57.396Z,15.43
2022-07-28T02:49:30.196Z,15.39
2022-07-28T02:51:58.430Z,15.36
2022-07-28T02:54:27.892Z,15.33
2022-07-28T02:56:55.596Z,15.35
2022-07-28T02:59:23.330Z,15.35
2022-07-28T03:01:51.949Z,15.36
2022-07-28T03:04:42.282Z,15.32
2022-07-28T03:07:09.518Z,15.31
2022-07-28T03:09:42.340Z,15.22
2022-07-28T03:12:10.471Z,15.21
2022-07-28T03:14:37.187Z,15.21
2022-07-28T03:17:04.005Z,15.11
2022-07-28T03:19:30.581Z,15.11
2022-07-28T03:21:57.101Z,15.06
2022-07-28T03:24:26.080Z,15.08
2022-07-28T03:26:59.686Z,15.09
2022-07-28T03:29:29.068Z,15.07
2022-07-28T03:31:57.801Z,15.06
2022-07-28T03:34:24.590Z,15.05
2022-07-28T03:36:57.014Z,15.02
2022-07-28T03:39:25.948Z,15.01
2022-07-28T03:42:01.327Z,14.95
2022-07-28T03:44:29.682Z,14.97
2022-07-28T03:46:56.379Z,14.89
2022-07-28T03:49:22.967Z,14.88
2022-07-28T03:51:49.590Z,14.86
2022-07-28T03:54:16.591Z,14.87
2022-07-28T03:56:43.261Z,14.81
2022-07-28T03:59:11.277Z,14.84
2022-07-28T04:01:38.366Z,14.76
2022-07-28T04:04:05.756Z,14.79
2022-07-28T04:06:32.252Z,14.77
2022-07-28T04:08:59.002Z,14.76
2022-07-28T04:11:25.485Z,14.74
2022-07-28T04:13:51.938Z,14.75
2022-07-28T04:16:18.454Z,14.76
2022-07-28T04:18:45.012Z,14.74
2022-07-28T04:21:11.492Z,14.74
2022-07-28T04:23:38.045Z,14.74
2022-07-28T04:26:04.549Z,14.70
2022-07-28T04:28:31.036Z,14.67
2022-07-28T04:30:57.585Z,14.67
2022-07-28T04:33:24.865Z,14.67
2022-07-28T04:35:52.719Z,14.67
2022-07-28T04:38:20.738Z,14.69
2022-07-28T04:40:48.318Z,14.66
2022-07-28T04:43:15.049Z,14.66
2022-07-28T04:45:53.264Z,14.65
2022-07-28T04:48:21.034Z,14.66
2022-07-28T04:50:47.525Z,14.65
2022-07-28T04:53:14.009Z,14.70
2022-07-28T04:55:40.595Z,14.68
2022-07-28T04:58:09.306Z,14.71
2022-07-28T05:00:36.069Z,14.73
2022-07-28T05:03:03.625Z,14.72
2022-07-28T05:05:30.169Z,14.73
2022-07-28T05:07:56.769Z,14.69
2022-07-28T05:10:23.255Z,14.69
2022-07-28T05:12:50.476Z,14.69
2022-07-28T05:15:16.952Z,14.69
2022-07-28T05:17:43.407Z,14.71
2022-07-28T05:20:10.598Z,14.64
2022-07-28T05:22:47.830Z,14.66
2022-07-28T05:25:19.118Z,14.68
2022-07-28T05:27:47.135Z,14.75
2022-07-28T05:30:14.883Z,14.75
2022-07-28T05:32:41.652Z,14.79
2022-07-28T05:35:09.099Z,14.77
2022-07-28T05:37:36.121Z,14.77
2022-07-28T05:40:04.767Z,14.80
2022-07-28T05:42:35.817Z,14.84
2022-07-28T05:45:04.499Z,14.88
2022-07-28T05:47:52.487Z,14.94
2022-07-28T05:50:21.404Z,14.98
2022-07-28T05:52:49.254Z,15.01
2022-07-28T05:55:16.164Z,15.06
2022-07-28T05:57:42.720Z,15.13
2022-07-28T06:00:15.127Z,15.16
2022-07-28T06:02:45.402Z,15.21
2022-07-28T06:05:12.256Z,15.24
2022-07-28T06:07:42.907Z,15.24
2022-07-28T06:10:15.372Z,15.30
2022-07-28T06:12:43.043Z,15.32
2022-07-28T06:15:21.598Z,15.35
2022-07-28T06:17:52.385Z,15.38
2022-07-28T06:20:22.369Z,15.39
2022-07-28T06:22:53.610Z,15.43
2022-07-28T06:25:22.341Z,15.46
2022-07-28T06:27:50.510Z,15.52
2022-07-28T06:30:17.908Z,15.60
2022-07-28T06:32:45.580Z,15.65
2022-07-28T06:35:16.275Z,15.70
2022-07-28T06:37:43.576Z,15.75
2022-07-28T06:40:11.864Z,15.78
2022-07-28T06:42:39.031Z,15.81
2022-07-28T06:45:06.890Z,15.84
2022-07-28T06:47:33.545Z,15.86
2022-07-28T06:50:01.402Z,15.81
2022-07-28T06:52:28.247Z,15.81
2022-07-28T06:54:58.070Z,15.80
2022-07-28T06:57:28.199Z,15.86
2022-07-28T07:00:03.251Z,15.87
2022-07-28T07:02:29.961Z,15.90
2022-07-28T07:04:56.460Z,15.94
2022-07-28T07:07:23.578Z,15.97
2022-07-28T07:09:51.442Z,16.02
2022-07-28T07:12:17.968Z,16.06
2022-07-28T07:14:44.519Z,16.11
2022-07-28T07:17:10.977Z,16.19
2022-07-28T07:19:37.635Z,16.26
2022-07-28T07:22:04.112Z,16.30
2022-07-28T07:24:30.644Z,16.30
2022-07-28T07:26:57.102Z,16.33
2022-07-28T07:29:23.710Z,16.36
2022-07-28T07:31:52.648Z,16.37
2022-07-28T07:34:19.674Z,16.37
2022-07-28T07:36:46.193Z,16.37
2022-07-28T07:39:12.720Z,16.37
2022-07-28T07:41:39.208Z,16.37
2022-07-28T07:44:05.737Z,16.39
2022-07-28T07:46:32.326Z,16.41
2022-07-28T07:48:58.917Z,16.47
2022-07-28T07:51:25.444Z,16.55
2022-07-28T07:53:51.918Z,16.56
2022-07-28T07:56:18.408Z,16.59
2022-07-28T07:58:44.871Z,16.61
2022-07-28T08:01:14.690Z,16.63
2022-07-28T08:03:42.586Z,16.72
2022-07-28T08:06:09.163Z,16.80
2022-07-28T08:08:43.866Z,16.83
2022-07-28T08:11:12.958Z,16.90
2022-07-28T08:13:39.494Z,16.97
2022-07-28T08:16:06.345Z,17.00
2022-07-28T08:18:32.970Z,16.99
2022-07-28T08:20:59.471Z,17.01
2022-07-28T08:23:26.363Z,17.05
2022-07-28T08:25:54.309Z,17.09
2022-07-28T08:28:20.938Z,17.14
2022-07-28T08:30:47.980Z,17.16
2022-07-28T08:33:14.457Z,17.20
2022-07-28T08:35:41.329Z,17.23
2022-07-28T08:38:07.885Z,17.29
2022-07-28T08:40:36.346Z,17.30
2022-07-28T08:43:35.307Z,17.34
2022-07-28T08:46:04.192Z,17.42
2022-07-28T08:48:32.947Z,17.43
2022-07-28T08:51:05.064Z,17.44
2022-07-28T08:53:32.632Z,17.45
2022-07-28T08:56:05.385Z,17.51
2022-07-28T08:58:34.068Z,17.63
2022-07-28T09:01:01.095Z,17.65
2022-07-28T09:03:29.944Z,17.70
2022-07-28T09:05:57.787Z,17.75
2022-07-28T09:08:24.919Z,17.79
2022-07-28T09:10:51.505Z,17.78
2022-07-28T09:13:18.580Z,17.79
2022-07-28T09:15:48.931Z,17.82
2022-07-28T09:18:17.433Z,17.84
2022-07-28T09:20:45.637Z,17.92
2022-07-28T09:23:42.492Z,17.98
2022-07-28T09:26:11.839Z,18.00
2022-07-28T09:28:57.494Z,17.93
2022-07-28T09:31:26.347Z,18.08
2022-07-28T09:34:03.459Z,18.10
2022-07-28T09:36:37.245Z,18.08
2022-07-28T09:39:03.951Z,18.05
2022-07-28T09:41:47.357Z,18.02
2022-07-28T09:44:21.537Z,18.15
2022-07-28T09:46:48.436Z,18.22
2022-07-28T09:49:15.557Z,18.29
2022-07-28T09:51:42.385Z,18.32
2022-07-28T09:54:18.401Z,18.27
2022-07-28T09:56:45.852Z,18.38
2022-07-28T09:59:14.818Z,18.38
2022-07-28T10:01:54.951Z,18.46
2022-07-28T10:04:33.004Z,18.50
2022-07-28T10:07:09.957Z,18.61
2022-07-28T10:09:38.261Z,18.73
2022-07-28T10:12:14.673Z,18.71
2022-07-28T10:14:41.197Z,18.77
2022-07-28T10:17:09.535Z,18.72
2022-07-28T10:19:37.038Z,18.84
2022-07-28T10:22:03.995Z,18.82
2022-07-28T10:24:34.762Z,18.80
2022-07-28T10:27:05.431Z,18.71
2022-07-28T10:29:32.335Z,18.76
2022-07-28T10:32:05.073Z,18.95
2022-07-28T10:34:35.249Z,19.02
2022-07-28T10:37:04.032Z,19.02
2022-07-28T10:39:42.295Z,19.03
2022-07-28T10:42:11.336Z,19.04
2022-07-28T10:44:38.506Z,19.13
2022-07-28T10:47:18.570Z,19.19
2022-07-28T10:49:50.167Z,19.13
2022-07-28T10:52:45.885Z,19.05
2022-07-28T10:55:23.243Z,19.12
2022-07-28T10:58:15.989Z,19.23
2022-07-28T11:01:02.132Z,19.46
2022-07-28T11:03:42.466Z,19.49
2022-07-28T11:06:28.008Z,19.40
2022-07-28T11:09:00.561Z,19.47
2022-07-28T11:11:49.825Z,19.51
2022-07-28T11:14:37.166Z,19.51
2022-07-28T11:17:04.520Z,19.35
2022-07-28T11:20:00.788Z,19.30
2022-07-28T11:22:32.858Z,19.34
2022-07-28T11:25:01.011Z,19.37
2022-07-28T11:27:50.717Z,19.44
2022-07-28T11:30:32.115Z,19.58
2022-07-28T11:33:02.910Z,19.90
2022-07-28T11:35:31.042Z,19.93
2022-07-28T11:38:00.463Z,20.03
2022-07-28T11:40:51.675Z,19.93
2022-07-28T11:43:22.115Z,20.08
2022-07-28T11:46:11.203Z,20.07
2022-07-28T11:48:44.585Z,20.15
2022-07-28T11:51:12.679Z,20.12
2022-07-28T11:53:46.226Z,20.23
2022-07-28T11:56:22.488Z,20.40
2022-07-28T11:58:57.151Z,20.61
2022-07-28T12:01:23.614Z,20.72
2022-07-28T12:03:55.756Z,20.97
2022-07-28T12:06:29.159Z,21.12
2022-07-28T12:09:02.377Z,21.24
2022-07-28T12:11:33.054Z,21.42
2022-07-28T12:14:11.624Z,21.58
2022-07-28T12:16:40.381Z,21.91
2022-07-28T12:19:08.711Z,22.09
2022-07-28T12:21:46.172Z,22.24
2022-07-28T12:24:20.041Z,22.46
2022-07-28T12:26:49.907Z,22.73
2022-07-28T12:29:19.516Z,23.02
2022-07-28T12:32:00.084Z,23.29
2022-07-28T12:34:28.927Z,23.61
2022-07-28T12:36:58.831Z,23.79
2022-07-28T12:39:26.184Z,23.95
2022-07-28T12:42:05.315Z,24.13
2022-07-28T12:44:36.331Z,24.29
2022-07-28T12:47:04.404Z,24.45
2022-07-28T12:49:30.876Z,24.49
2022-07-28T12:51:59.113Z,24.50
2022-07-28T12:54:36.638Z,24.55
2022-07-28T12:57:03.665Z,24.52
2022-07-28T12:59:34.949Z,24.52
2022-07-28T13:02:02.796Z,23.91
2022-07-28T13:04:42.702Z,23.39
2022-07-28T13:07:24.693Z,23.00
2022-07-28T13:10:12.353Z,22.83
2022-07-28T13:12:39.598Z,22.72
2022-07-28T13:15:16.453Z,22.62
2022-07-28T13:17:52.203Z,22.53
2022-07-28T13:20:20.471Z,22.50
2022-07-28T13:22:46.940Z,22.67
2022-07-28T13:25:14.557Z,23.10
2022-07-28T13:27:41.266Z,23.22
2022-07-28T13:30:09.679Z,23.10
2022-07-28T13:32:36.237Z,23.18
2022-07-28T13:35:03.806Z,23.12
2022-07-28T13:37:30.465Z,23.02
2022-07-28T13:39:56.977Z,22.84
2022-07-28T13:42:23.786Z,23.15
2022-07-28T13:44:50.792Z,23.51
2022-07-28T13:47:17.947Z,23.56
2022-07-28T13:49:44.530Z,23.53
2022-07-28T13:52:17.213Z,23.50
2022-07-28T13:54:56.010Z,23.51
2022-07-28T13:57:22.665Z,23.38
2022-07-28T13:59:49.208Z,23.21
2022-07-28T14:02:16.330Z,22.98
2022-07-28T14:04:50.778Z,22.92
2022-07-28T14:07:20.835Z,22.81
2022-07-28T14:09:50.105Z,22.73
2022-07-28T14:12:16.904Z,22.71
2022-07-28T14:14:48.155Z,22.72
2022-07-28T14:17:40.077Z,22.85
2022-07-28T14:20:02.797Z,22.95
2022-07-28T14:22:29.340Z,22.98
2022-07-28T14:24:55.847Z,22.97
2022-07-28T14:27:27.180Z,22.98
2022-07-28T14:29:55.609Z,22.90
2022-07-28T14:32:22.077Z,22.84
2022-07-28T14:34:48.699Z,22.83
2022-07-28T14:37:15.269Z,22.85
2022-07-28T14:39:42.003Z,22.98
2022-07-28T14:42:08.572Z,23.14
2022-07-28T14:44:35.228Z,23.34
2022-07-28T14:47:02.379Z,23.49
2022-07-28T14:49:29.537Z,23.50
2022-07-28T14:51:57.490Z,23.53
2022-07-28T14:54:23.997Z,23.52
2022-07-28T14:56:50.833Z,23.51
2022-07-28T14:59:17.461Z,23.56
2022-07-28T15:01:44.199Z,23.57
2022-07-28T15:04:12.595Z,23.50
2022-07-28T15:06:40.380Z,23.42
2022-07-28T15:09:07.141Z,23.36
2022-07-28T15:11:33.614Z,23.33
2022-07-28T15:14:00.106Z,23.25
2022-07-28T15:16:26.685Z,23.18
2022-07-28T15:18:53.323Z,23.15
2022-07-28T15:21:19.914Z,23.17
2022-07-28T15:23:46.515Z,23.22
2022-07-28T15:26:13.120Z,23.20
2022-07-28T15:28:39.879Z,23.18
2022-07-28T15:31:08.733Z,23.13
2022-07-28T15:33:47.455Z,23.11
2022-07-28T15:36:15.286Z,23.06
2022-07-28T15:38:41.936Z,23.04
2022-07-28T15:41:14.921Z,23.01
2022-07-28T15:43:41.668Z,22.96
2022-07-28T15:46:11.205Z,22.92
2022-07-28T15:48:38.863Z,22.89
2022-07-28T15:51:05.466Z,22.86
2022-07-28T15:53:31.970Z,22.82
2022-07-28T15:55:58.501Z,22.78
2022-07-28T15:58:26.421Z,22.76
2022-07-28T16:00:53.162Z,22.74
2022-07-28T16:03:21.722Z,22.72
2022-07-28T16:05:49.572Z,22.71
2022-07-28T16:08:22.773Z,22.69
2022-07-28T16:10:51.423Z,22.67
2022-07-28T16:13:28.548Z,22.61
2022-07-28T16:16:04.851Z,22.62
2022-07-28T16:18:31.972Z,22.63
2022-07-28T16:20:58.578Z,22.66
2022-07-28T16:23:25.154Z,22.65
2022-07-28T16:25:51.646Z,22.65
2022-07-28T16:28:18.133Z,22.66
2022-07-28T16:30:44.697Z,22.68
2022-07-28T16:33:11.218Z,22.66
2022-07-28T16:35:37.717Z,22.68
2022-07-28T16:38:06.063Z,22.73
2022-07-28T16:40:33.575Z,22.76
2022-07-28T16:43:03.418Z,22.77
2022-07-28T16:45:31.241Z,22.80
2022-07-28T16:47:58.904Z,22.83
2022-07-28T16:50:25.825Z,22.83
2022-07-28T16:52:54.076Z,22.87
2022-07-28T16:55:23.557Z,22.89
2022-07-28T16:57:51.796Z,22.95
2022-07-28T17:00:18.428Z,22.96
2022-07-28T17:02:45.327Z,22.94
2022-07-28T17:05:12.670Z,22.95
2022-07-28T17:07:45.841Z,22.96
2022-07-28T17:10:15.224Z,22.97
2022-07-28T17:12:49.699Z,22.96
2022-07-28T17:15:21.790Z,22.95
2022-07-28T17:17:50.105Z,22.90
2022-07-28T17:20:16.985Z,22.90
2022-07-28T17:22:44.670Z,22.90
2022-07-28T17:27:57.755Z,22.87
2022-07-28T17:30:24.635Z,22.85
2022-07-28T17:32:53.718Z,22.84
2022-07-28T17:35:34.467Z,22.81
2022-07-28T17:38:03.244Z,22.83
2022-07-28T17:40:29.883Z,22.82
2022-07-28T17:42:56.359Z,22.81
2022-07-28T17:45:24.069Z,22.80
2022-07-28T17:47:50.942Z,22.77
2022-07-28T17:50:17.781Z,22.75
2022-07-28T17:52:45.701Z,22.73
2022-07-28T17:55:34.457Z,22.72
2022-07-28T17:58:19.996Z,22.69
2022-07-28T18:00:55.957Z,22.64
2022-07-28T18:03:23.926Z,22.60
2022-07-28T18:05:50.812Z,22.57
2022-07-28T18:08:17.834Z,22.53
2022-07-28T18:10:50.390Z,22.50
2022-07-28T18:13:17.763Z,22.48
2022-07-28T18:15:44.568Z,22.46
2022-07-28T18:18:11.404Z,22.44
2022-07-28T18:20:38.808Z,22.38
2022-07-28T18:23:07.617Z,22.36
2022-07-28T18:25:36.071Z,22.33
2022-07-28T18:28:03.584Z,22.30
2022-07-28T18:30:30.235Z,22.27
2022-07-28T18:32:56.808Z,22.25
2022-07-28T18:35:23.934Z,22.19
2022-07-28T18:37:51.765Z,22.17
2022-07-28T18:40:21.405Z,22.14
2022-07-28T18:42:48.942Z,22.11
2022-07-28T18:45:16.345Z,22.05
2022-07-28T18:47:47.421Z,22.00
2022-07-28T18:50:31.340Z,21.97
2022-07-28T18:52:58.748Z,21.94
2022-07-28T18:55:25.434Z,21.94
2022-07-28T18:57:51.958Z,21.90
2022-07-28T19:00:18.602Z,21.85
2022-07-28T19:02:45.116Z,21.84
2022-07-28T19:05:11.890Z,21.80
2022-07-28T19:07:38.442Z,21.76
2022-07-28T19:10:06.594Z,21.75
2022-07-28T19:12:34.175Z,21.73
2022-07-28T19:15:01.528Z,21.67
2022-07-28T19:17:28.031Z,21.63
2022-07-28T19:19:59.220Z,21.59
2022-07-28T19:22:25.695Z,21.57
2022-07-28T19:24:52.664Z,21.55
2022-07-28T19:27:20.332Z,21.54
2022-07-28T19:29:47.173Z,21.50
2022-07-28T19:32:13.707Z,21.48
2022-07-28T19:34:41.745Z,21.47
2022-07-28T19:37:08.254Z,21.41
2022-07-28T19:39:45.789Z,21.38
2022-07-28T19:42:12.693Z,21.39
2022-07-28T19:44:39.489Z,21.39
2022-07-28T19:47:06.083Z,21.40
2022-07-28T19:49:32.894Z,21.40
2022-07-28T19:51:59.450Z,21.39
2022-07-28T19:54:26.506Z,21.35
2022-07-28T19:56:53.519Z,21.33
2022-07-28T19:59:20.124Z,21.32
2022-07-28T20:01:48.824Z,21.29
2022-07-28T20:04:17.773Z,21.28
2022-07-28T20:06:44.573Z,21.26
2022-07-28T20:09:11.457Z,21.27
2022-07-28T20:11:38.964Z,21.22
2022-07-28T20:14:05.522Z,21.23
2022-07-28T20:16:32.241Z,21.22
2022-07-28T20:18:59.370Z,21.21
2022-07-28T20:21:26.481Z,21.20
2022-07-28T20:23:54.580Z,21.20
2022-07-28T20:26:23.528Z,21.17
2022-07-28T20:28:50.372Z,21.16
2022-07-28T20:31:17.269Z,21.12
2022-07-28T20:33:43.850Z,21.10
2022-07-28T20:36:10.348Z,21.10
2022-07-28T20:38:36.852Z,21.08
2022-07-28T20:41:06.614Z,21.05
2022-07-28T20:43:36.172Z,21.04
2022-07-28T20:46:05.125Z,21.01
2022-07-28T20:48:31.821Z,21.01
2022-07-28T20:50:58.309Z,20.99
2022-07-28T20:53:24.781Z,20.96
2022-07-28T20:55:51.300Z,20.91
2022-07-28T20:58:17.774Z,20.88
2022-07-28T21:00:44.978Z,20.87
2022-07-28T21:03:11.502Z,20.85
2022-07-28T21:05:38.208Z,20.81
2022-07-28T21:08:09.011Z,20.80
2022-07-28T21:10:36.459Z,20.77
2022-07-28T21:13:03.035Z,20.78
2022-07-28T21:15:29.580Z,20.77
2022-07-28T21:17:57.096Z,20.76
2022-07-28T21:20:24.624Z,20.74
2022-07-28T21:22:51.861Z,20.74
2022-07-28T21:25:18.540Z,20.72
2022-07-28T21:28:03.480Z,20.69
2022-07-28T21:30:30.112Z,20.66
2022-07-28T21:32:56.828Z,20.66
2022-07-28T21:35:23.776Z,20.66
2022-07-28T21:37:50.357Z,20.61
2022-07-28T21:40:16.912Z,20.61
2022-07-28T21:42:46.620Z,20.59
2022-07-28T21:45:13.186Z,20.59
2022-07-28T21:47:40.997Z,20.58
2022-07-28T21:50:07.978Z,20.56
2022-07-28T21:52:36.273Z,20.54
2022-07-28T21:55:03.223Z,20.54
2022-07-28T21:57:29.772Z,20.52
2022-07-28T21:59:56.389Z,20.51
2022-07-28T22:02:24.172Z,20.50
2022-07-28T22:04:51.760Z,20.47
2022-07-28T22:07:18.273Z,20.43
2022-07-28T22:09:45.124Z,20.41
2022-07-28T22:12:11.957Z,20.40
2022-07-28T22:14:38.472Z,20.37
2022-07-28T22:17:05.008Z,20.36
2022-07-28T22:19:32.034Z,20.36
2022-07-28T22:21:59.768Z,20.33
2022-07-28T22:24:26.411Z,20.28
2022-07-28T22:26:52.923Z,20.29
2022-07-28T22:29:19.423Z,20.27
2022-07-28T22:31:46.050Z,20.24
2022-07-28T22:34:12.820Z,20.23
2022-07-28T22:36:39.438Z,20.23
2022-07-28T22:39:06.097Z,20.21
2022-07-28T22:41:32.566Z,20.20
2022-07-28T22:43:59.079Z,20.17
2022-07-28T22:46:25.710Z,20.15
2022-07-28T22:48:52.347Z,20.15
2022-07-28T22:51:18.970Z,20.12
2022-07-28T22:53:45.427Z,20.09
2022-07-28T22:56:12.144Z,20.09
2022-07-28T22:58:39.998Z,20.09
2022-07-28T23:01:06.594Z,20.09
2022-07-28T23:03:33.829Z,20.08
2022-07-28T23:06:00.981Z,20.08
2022-07-28T23:08:28.036Z,20.07
2022-07-28T23:10:54.913Z,20.07
2022-07-28T23:13:21.368Z,20.08
2022-07-28T23:15:47.928Z,20.04
2022-07-28T23:18:14.679Z,20.03
2022-07-28T23:20:41.876Z,20.02
2022-07-28T23:23:09.199Z,20.00
2022-07-28T23:25:38.981Z,19.98
2022-07-28T23:28:05.804Z,19.95
2022-07-28T23:30:32.264Z,19.96
2022-07-28T23:32:58.761Z,19.92
2022-07-28T23:35:25.332Z,19.91
2022-07-28T23:37:51.779Z,19.88
2022-07-28T23:40:18.311Z,19.90
2022-07-28T23:42:44.781Z,19.88
2022-07-28T23:45:11.516Z,19.87
2022-07-28T23:47:37.971Z,19.86
2022-07-28T23:50:05.856Z,19.85
2022-07-28T23:52:32.657Z,19.84
2022-07-28T23:54:59.154Z,19.84
2022-07-28T23:57:25.714Z,19.83
2022-07-28T23:59:57.732Z,19.82
